Saint Austell, United Kingdom
Current Conditions -  °F | °C
As of 4:50 PM on Sunday 23 Nov 2014 (Local Time) from EGHQ Reporting Station
Few Clouds Few Clouds  
Wind Chill: 40°   Ceiling: Unl
Heat Index: 45°   Visibility: 6mi
Dew Point: 36°   Wind: 9mph
Humidity: 71%   Direction: 360°N
Pressure: 30.12"   Gusts: NA
Location:  50.34°N, 4.79°W
Report Text: EGHQ 231650Z 36008KT 9999 FEW030 07/02 Q1020
Loading
Personal Weather Stations






























Interactive Weather Map New forecast layout! Learn more

10-Day Weather Forecast

Advertisements
Track Severe Weather on mobile